Ulqini, Mali i Zi

02:24 AM CEST on gusht 03, 2015 (GMT +0200)
Montenegro Apartments UTJEHA | | Change Station
CLOSE
Current Station
Personal Weather Stations
Location: Utjeha-Bušat,
Elevation: 148 ft
Nearby Weather Stations

Elev 148 ft 42.00 °N, 19.15 °E | Updated 7 seconds ago

Clear
i kthjellet
83.3 °F
Feels Like 85 °F
N
0.2
Era e paqendrueshme Era from VVP
Gusts 2.5 mph

Sot
High -- | Low -- °F
--% Chance of Precip.
Yesterday
High -- | Low -- °F
Precip. -- ne
5:38 AM 7:59 PM
Waning Gibbous, 91% visible
Presioni 29.95 ne
Visioni -9999.0 milje
Clouds
Indeksi I Nxehtesise 85 °F
Pika E Veses 64 °F
Lageshtira E ajrit 52%
Rainfall 0.00 ne
Snow Depth Not available.
UV 0.0 out of 12
Pollen Not available.
Air Quality Not available.
Flu Activity Not available.
METAR LATI 030020Z VRB02KT CAVOK 23/18 Q1014 NOSIG

More Conditions Fewer Conditions

Presioni 29.95 ne
Visioni -9999.0 milje
Clouds
Indeksi I Nxehtesise 85 °F
Pika E Veses 64 °F
Lageshtira E ajrit 52%
Rainfall 0.00 ne
Snow Depth Not available.
UV 0.0 out of 12
Pollen Not available.
Air Quality Not available.
Flu Activity Not available.
METAR LATI 030020Z VRB02KT CAVOK 23/18 Q1014 NOSIG

More Conditions Fewer Conditions

10-Day Weather Forecast

×

Almanac

Astronomy

Aug. 03, 2015 Rise Set
Actual Time
Civil Twilight
Nautical Twilight
Astronomical Twilight
Moon
Length Of Visible Light
Length of Day
Tomorrow will be .
, % of the Moon is Illuminated

Today's Extremes

Country Highs Country Lows

Community

WunderPhotos

Upload Photos

1,843,455 photos uploaded!

WunderBlogs® & News

Nearby

Air Quality

  Air Quality AQ Index Pollutant
Not available.

Snow Depth

Station Depth Elevation

Earthquake Activity

City Distance Mag. Time & Date
Minimum magnitude displayed is 2.5.

Coastal Water Temperatures

Vend Temperatura

Stations

Nearby Weather Stations

Station Location Temp Ftohtesia E erses Pika E Veses Lageshtira E ajrit Era Precip. Elev te freskuara(Te Dhenat) Type